This is the latest recevied weather packets stored in our database for station/object AE5EW. If no packets are shown the sender has not sent any weather packets the latest 10 day(s).
| Time | Temp. | Humidity | Pressure | Rain* | Wind** | Luminosity | Snow |
|---|---|---|---|---|---|---|---|
| 1788126279 | 33.33° C | 64% | 1018.3 hPa | 0 mm | - | - | - |
| 1788125974 | 32.78° C | 63% | 1018.4 hPa | 0 mm | - | - | - |
| 1788125670 | 32.78° C | 65% | 1018.2 hPa | 0 mm | - | - | - |
| 1788125365 | 32.78° C | 61% | 1018 hPa | 0 mm | - | - | - |
| 1788125060 | 33.33° C | 61% | 1018 hPa | 0 mm | - | - | - |
| 1788124760 | 32.78° C | 62% | 1018.1 hPa | 0 mm | - | - | - |
| 1788124454 | 32.78° C | 60% | 1018.2 hPa | 0 mm | - | - | - |
| 1788124150 | 32.78° C | 61% | 1018.2 hPa | 0 mm | - | - | - |
| 1788123849 | 32.78° C | 62% | 1018.2 hPa | 0 mm | - | - | - |
| 1788123547 | 33.33° C | 63% | 1018.3 hPa | 0 mm | - | - | - |
| 1788123246 | 32.78° C | 61% | 1018.1 hPa | 0 mm | - | - | - |
| 1788122942 | 31.67° C | 64% | 1018.4 hPa | 0 mm | - | - | - |
| 1788122641 | 31.67° C | 67% | 1018.6 hPa | 0 mm | - | - | - |
| 1788122336 | 31.67° C | 63% | 1018.6 hPa | 0 mm | - | - | - |
| 1788122033 | 31.67° C | 64% | 1018.6 hPa | 0 mm | - | - | - |
| 1788121732 | 31.67° C | 66% | 1018.5 hPa | 0 mm | - | - | - |
| 1788121427 | 33.33° C | 61% | 1018.3 hPa | 0 mm | - | - | - |
| 1788121122 | 32.22° C | 63% | 1018.7 hPa | 0 mm | - | - | - |
| 1788120816 | 32.78° C | 61% | 1018.7 hPa | 0 mm | - | - | - |
| 1788120512 | 33.89° C | 57% | 1018.7 hPa | 0 mm | - | - | - |
| 1788120211 | 32.78° C | 58% | 1018.6 hPa | 0 mm | - | - | - |
| 1788119907 | 31.67° C | 64% | 1018.6 hPa | 0 mm | - | - | - |
| 1788119607 | 31.67° C | 66% | 1018.8 hPa | 0 mm | - | - | - |
| 1788119305 | 31.67° C | 66% | 1018.9 hPa | 0 mm | - | - | - |
| 1788119005 | 31.67° C | 64% | 1018.9 hPa | 0 mm | - | - | - |
* Rain latest hour (hover to see other rain measurements)
** Current wind speed in m/s (hover to see current wind gust speed)